Time;durP1;ratioP1;P1;durP2;ratioP2;P2;SDS_P1;SDS_P2;PMS_P1;PMS_P2;Temp;Humidity;BMP_temperature;BMP_pressure;BME280_temperature;BME280_humidity;BME280_pressure;Samples;Min_cycle;Max_cycle;Signal;HPM_P1;HPM_P2
2022/02/26 00:00:47;;;;;;;12.67;2.80;;;;;;;3.04;84.19;102044.91;5026290;28;20214;-85
2022/02/26 00:03:14;;;;;;;17.57;4.00;;;;;;;3.04;83.48;102040.53;5033452;28;20221;-84
2022/02/26 00:05:43;;;;;;;16.00;2.83;;;;;;;3.06;84.33;102043.09;5032087;28;20208;-83
2022/02/26 00:08:09;;;;;;;16.27;2.27;;;;;;;3.07;84.28;102040.47;5039959;28;20209;-83
2022/02/26 00:10:36;;;;;;;15.80;3.13;;;;;;;3.08;83.70;102050.09;5028839;28;20207;-82
2022/02/26 00:13:02;;;;;;;12.93;4.50;;;;;;;3.12;83.75;102054.47;5029104;28;20207;-84
2022/02/26 00:15:29;;;;;;;14.37;4.20;;;;;;;3.13;83.72;102055.34;5024399;28;20230;-82
2022/02/26 00:17:57;;;;;;;9.90;2.90;;;;;;;3.13;83.26;102055.34;5038303;28;20202;-84
2022/02/26 00:20:23;;;;;;;16.40;2.90;;;;;;;3.14;83.72;102060.59;5038624;28;20213;-85
2022/02/26 00:22:50;;;;;;;11.13;3.00;;;;;;;3.17;83.17;102067.59;5030396;28;20206;-84
2022/02/26 00:25:16;;;;;;;18.90;2.40;;;;;;;3.19;83.11;102068.44;5020728;28;20592;-83
2022/02/26 00:27:43;;;;;;;16.50;3.13;;;;;;;3.21;83.08;102064.03;5034912;28;20222;-83
2022/02/26 00:30:11;;;;;;;24.60;3.90;;;;;;;3.22;83.28;102070.19;5038365;28;20209;-84
2022/02/26 00:32:38;;;;;;;16.50;3.13;;;;;;;3.23;83.03;102070.13;5038835;28;20213;-83
2022/02/26 00:35:06;;;;;;;15.07;3.43;;;;;;;3.22;83.43;102071.03;5037172;28;20234;-83
2022/02/26 00:37:33;;;;;;;15.20;3.37;;;;;;;3.21;83.34;102073.69;5028306;28;20214;-84
2022/02/26 00:40:00;;;;;;;18.93;2.67;;;;;;;3.21;82.84;102074.56;5034952;28;20206;-85
2022/02/26 00:42:26;;;;;;;13.70;3.20;;;;;;;3.21;83.00;102078.97;5027651;28;20216;-83
2022/02/26 00:44:53;;;;;;;16.93;3.17;;;;;;;3.20;83.02;102085.09;5038076;28;20309;-83
2022/02/26 00:47:19;;;;;;;12.97;2.40;;;;;;;3.19;82.66;102084.25;5035454;28;20206;-83
2022/02/26 00:49:48;;;;;;;19.43;2.87;;;;;;;3.18;81.93;102079.84;5034285;28;20210;-82
2022/02/26 00:52:17;;;;;;;15.27;2.93;;;;;;;3.18;82.39;102086.88;5020328;28;20261;-83
2022/02/26 00:54:45;;;;;;;21.33;3.17;;;;;;;3.17;82.10;102099.16;5025609;28;20236;-84
2022/02/26 00:57:12;;;;;;;13.83;2.60;;;;;;;3.19;82.78;102099.16;5032212;28;20214;-83
2022/02/26 00:59:39;;;;;;;14.80;2.70;;;;;;;3.21;82.49;102093.00;5026152;28;20202;-84
2022/02/26 01:02:06;;;;;;;17.07;3.00;;;;;;;3.23;82.93;102101.72;5033863;28;20206;-81
2022/02/26 01:04:34;;;;;;;19.03;3.47;;;;;;;3.24;81.99;102097.31;5024530;28;20301;-81
2022/02/26 01:07:01;;;;;;;16.70;3.03;;;;;;;3.27;82.57;102108.72;5038016;28;20210;-84
2022/02/26 01:09:29;;;;;;;13.83;3.27;;;;;;;3.29;81.75;102112.22;5037809;28;20217;-83
2022/02/26 01:11:56;;;;;;;28.47;3.07;;;;;;;3.32;81.84;102109.53;5037793;28;20203;-83
2022/02/26 01:14:23;;;;;;;19.00;2.73;;;;;;;3.32;81.70;102100.78;5034112;28;20235;-81
2022/02/26 01:16:49;;;;;;;13.10;3.07;;;;;;;3.36;81.56;102100.72;5043958;28;20202;-82
2022/02/26 01:19:16;;;;;;;14.90;3.00;;;;;;;3.35;82.42;102112.16;5047602;28;20198;-85
2022/02/26 01:21:44;;;;;;;18.03;3.10;;;;;;;3.38;81.97;102114.75;5038243;28;20264;-83
2022/02/26 01:24:11;;;;;;;17.73;3.13;;;;;;;3.40;81.60;102118.22;5036006;28;20229;-83
2022/02/26 01:26:39;;;;;;;19.87;2.90;;;;;;;3.41;81.55;102114.69;5036674;28;20212;-82
2022/02/26 01:29:05;;;;;;;18.93;2.93;;;;;;;3.43;81.92;102115.56;5029686;28;20210;-81
2022/02/26 01:31:33;;;;;;;20.43;3.43;;;;;;;3.46;81.71;102123.44;5038603;28;20205;-81
2022/02/26 01:34:00;;;;;;;20.73;2.80;;;;;;;3.47;82.38;102122.56;5043696;28;20230;-81
2022/02/26 01:36:27;;;;;;;20.93;3.10;;;;;;;3.45;81.99;102123.44;5030820;28;20211;-82
2022/02/26 01:38:54;;;;;;;16.43;3.17;;;;;;;3.47;82.06;102132.22;5031542;28;20202;-82
2022/02/26 01:41:21;;;;;;;23.07;2.97;;;;;;;3.49;81.82;102130.44;5054415;28;20210;-82
2022/02/26 01:43:49;;;;;;;19.50;3.93;;;;;;;3.52;81.67;102121.63;5034686;28;20876;-82
2022/02/26 01:46:15;;;;;;;12.80;3.03;;;;;;;3.53;82.20;102123.38;5030121;28;20215;-82
2022/02/26 01:48:42;;;;;;;19.53;3.20;;;;;;;3.54;81.67;102125.13;5033090;28;20283;-82
2022/02/26 01:51:10;;;;;;;12.97;2.80;;;;;;;3.55;81.71;102130.38;5039596;28;20756;-83
2022/02/26 01:53:38;;;;;;;14.43;2.90;;;;;;;3.56;81.32;102133.88;5039249;28;20229;-84
2022/02/26 01:56:06;;;;;;;14.07;3.20;;;;;;;3.56;81.87;102147.94;5036968;28;20742;-81
2022/02/26 01:58:32;;;;;;;14.73;3.70;;;;;;;3.57;81.19;102146.19;5035727;28;20261;-84
2022/02/26 02:01:01;;;;;;;17.40;3.07;;;;;;;3.58;81.75;102145.28;5036625;28;20206;-84
2022/02/26 02:03:28;;;;;;;14.43;2.80;;;;;;;3.59;81.13;102144.38;5034595;28;20322;-82
2022/02/26 02:05:55;;;;;;;16.13;2.90;;;;;;;3.60;81.69;102143.47;5030273;28;20287;-82
2022/02/26 02:08:22;;;;;;;14.53;3.23;;;;;;;3.62;81.58;102150.47;5022509;28;20213;-82
2022/02/26 02:10:50;;;;;;;14.30;3.20;;;;;;;3.62;81.14;102150.47;5021535;28;20589;-82
2022/02/26 02:13:17;;;;;;;14.27;2.67;;;;;;;3.62;80.98;102160.16;5036782;28;20321;-83
2022/02/26 02:15:44;;;;;;;16.27;2.90;;;;;;;3.61;81.43;102153.13;5031613;28;20237;-82
2022/02/26 02:18:14;;;;;;;14.37;3.00;;;;;;;3.62;81.33;102147.84;5029879;28;20213;-83
2022/02/26 02:20:42;;;;;;;14.43;3.27;;;;;;;3.63;80.65;102154.88;5037331;28;20212;-83
2022/02/26 02:23:10;;;;;;;14.63;2.50;;;;;;;3.64;80.63;102159.25;5022881;28;20202;-83
2022/02/26 02:25:38;;;;;;;15.57;2.77;;;;;;;3.65;80.84;102158.34;5030703;28;20248;-84
2022/02/26 02:28:07;;;;;;;21.97;3.20;;;;;;;3.66;81.00;102162.75;5038091;28;20297;-84
2022/02/26 02:30:34;;;;;;;18.33;3.03;;;;;;;3.67;81.03;102158.34;5017735;28;20221;-83
2022/02/26 02:33:01;;;;;;;15.43;2.27;;;;;;;3.65;81.22;102166.25;5021226;28;20218;-83
2022/02/26 02:35:30;;;;;;;17.97;2.80;;;;;;;3.66;80.29;102170.66;5025647;28;20236;-84
2022/02/26 02:37:57;;;;;;;13.50;2.70;;;;;;;3.66;80.77;102167.13;5025525;28;20695;-82
2022/02/26 02:40:26;;;;;;;12.30;2.57;;;;;;;3.65;80.62;102174.16;5035377;28;20214;-82
2022/02/26 02:42:54;;;;;;;18.23;3.20;;;;;;;3.67;80.73;102179.41;5035667;28;20210;-86
2022/02/26 02:45:22;;;;;;;15.77;3.30;;;;;;;3.65;80.10;102187.34;5017192;28;20207;-83
2022/02/26 02:47:50;;;;;;;13.10;3.00;;;;;;;3.65;80.76;102184.69;5031286;28;20664;-82
2022/02/26 02:50:17;;;;;;;14.43;3.10;;;;;;;3.67;80.75;102190.84;5034675;28;20322;-82
2022/02/26 02:52:44;;;;;;;12.43;2.70;;;;;;;3.65;80.88;102189.09;5034407;28;20225;-85
2022/02/26 02:55:12;;;;;;;15.17;2.50;;;;;;;3.66;80.55;102199.63;5036948;28;20233;-82
2022/02/26 02:57:39;;;;;;;17.93;3.07;;;;;;;3.67;79.83;102195.22;5033157;22;20757;-72
2022/02/26 03:00:07;;;;;;;13.60;2.70;;;;;;;3.68;80.42;102197.84;5002707;28;20230;-72
2022/02/26 03:02:34;;;;;;;13.90;3.03;;;;;;;3.69;80.37;102201.38;5007671;28;20723;-73
2022/02/26 03:05:01;;;;;;;13.63;2.60;;;;;;;3.70;79.68;102205.75;5009463;28;20206;-72
2022/02/26 03:07:28;;;;;;;16.90;3.07;;;;;;;3.70;80.52;102221.56;5007074;28;20211;-72
2022/02/26 03:09:54;;;;;;;20.13;2.83;;;;;;;3.68;80.64;102215.41;5008768;28;20605;-73
2022/02/26 03:12:21;;;;;;;14.83;3.00;;;;;;;3.66;80.74;102225.09;5010314;28;20207;-72
2022/02/26 03:14:49;;;;;;;13.30;2.30;;;;;;;3.68;80.14;102233.88;5008443;28;20234;-72
2022/02/26 03:17:15;;;;;;;22.80;3.17;;;;;;;3.68;80.14;102224.19;5008496;28;20210;-72
2022/02/26 03:19:42;;;;;;;18.00;3.27;;;;;;;3.69;80.32;102232.97;5002949;28;20227;-72
2022/02/26 03:22:09;;;;;;;14.53;3.17;;;;;;;3.68;81.02;102239.13;5004612;28;20200;-72
2022/02/26 03:24:35;;;;;;;15.37;3.13;;;;;;;3.66;80.74;102236.50;5002269;28;20210;-72
2022/02/26 03:27:02;;;;;;;12.37;2.73;;;;;;;3.67;80.42;102247.94;5003535;28;20207;-72
2022/02/26 03:29:29;;;;;;;15.50;3.47;;;;;;;3.66;80.84;102238.28;5012956;28;20233;-72
2022/02/26 03:31:57;;;;;;;17.53;2.93;;;;;;;3.66;80.74;102246.19;5019765;22;20235;-75
2022/02/26 03:34:24;;;;;;;16.23;3.03;;;;;;;3.62;80.67;102245.31;5008331;28;20213;-76
2022/02/26 03:36:53;;;;;;;21.97;3.83;;;;;;;3.61;80.67;102245.34;4999428;28;20212;-75
2022/02/26 03:39:20;;;;;;;17.67;3.70;;;;;;;3.59;81.00;102255.00;5012394;28;20687;-75
2022/02/26 03:41:46;;;;;;;16.70;3.30;;;;;;;3.57;80.92;102252.41;5011272;28;20249;-75
2022/02/26 03:44:13;;;;;;;13.97;2.70;;;;;;;3.55;81.01;102256.81;5007677;28;20214;-75
2022/02/26 03:46:40;;;;;;;11.80;3.07;;;;;;;3.53;80.40;102255.97;5003975;28;20199;-75
2022/02/26 03:49:08;;;;;;;13.90;2.73;;;;;;;3.53;80.69;102250.69;5013201;28;20203;-75
2022/02/26 03:51:36;;;;;;;21.03;2.77;;;;;;;3.53;81.11;102257.72;5013002;28;20223;-75
2022/02/26 03:54:03;;;;;;;17.00;2.80;;;;;;;3.51;80.32;102257.72;5006950;28;20207;-75
2022/02/26 03:56:30;;;;;;;11.90;2.63;;;;;;;3.51;80.88;102255.09;5011143;28;20230;-75
2022/02/26 03:58:57;;;;;;;18.13;3.00;;;;;;;3.50;80.68;102261.25;5013272;28;20223;-75
2022/02/26 04:01:24;;;;;;;17.40;3.20;;;;;;;3.46;80.04;102263.03;4996561;28;20579;-75
2022/02/26 04:03:51;;;;;;;15.47;2.83;;;;;;;3.46;79.95;102275.31;5006058;28;20215;-76
2022/02/26 04:06:19;;;;;;;12.40;2.47;;;;;;;3.43;81.00;102275.34;5012500;28;20673;-75
2022/02/26 04:08:46;;;;;;;20.90;2.30;;;;;;;3.42;80.21;102274.47;5003148;28;20214;-75
2022/02/26 04:11:12;;;;;;;17.70;2.77;;;;;;;3.42;80.87;102290.28;5008275;28;20594;-75
2022/02/26 04:13:39;;;;;;;15.87;2.40;;;;;;;3.41;80.63;102283.25;5012420;28;20218;-75
2022/02/26 04:16:07;;;;;;;20.60;3.30;;;;;;;3.37;80.54;102284.19;5011620;28;20230;-74
2022/02/26 04:18:34;;;;;;;13.07;2.77;;;;;;;3.36;79.98;102286.84;5012614;28;20207;-75
2022/02/26 04:21:00;;;;;;;15.53;2.97;;;;;;;3.34;80.76;102286.84;5012184;28;20590;-75
2022/02/26 04:23:28;;;;;;;13.63;4.00;;;;;;;3.32;80.01;102298.25;5012320;28;20215;-75
2022/02/26 04:25:55;;;;;;;14.57;2.57;;;;;;;3.30;80.77;102306.16;5012677;28;20203;-75
2022/02/26 04:28:21;;;;;;;19.70;3.00;;;;;;;3.26;80.89;102308.81;4998406;28;20696;-75
2022/02/26 04:30:48;;;;;;;17.93;2.80;;;;;;;3.26;80.56;102314.09;5003894;28;20222;-74
2022/02/26 04:33:15;;;;;;;10.20;2.40;;;;;;;3.23;80.26;102316.75;5005959;28;20285;-75
2022/02/26 04:35:42;;;;;;;18.37;3.03;;;;;;;3.22;80.28;102313.25;5008333;28;20313;-75
2022/02/26 04:38:09;;;;;;;16.40;2.57;;;;;;;3.20;80.96;102325.56;5006097;28;20206;-75
2022/02/26 04:40:37;;;;;;;17.00;3.13;;;;;;;3.17;80.31;102328.22;5011190;28;20214;-75
2022/02/26 04:43:04;;;;;;;15.00;3.03;;;;;;;3.16;80.99;102333.47;5005454;28;20230;-75
2022/02/26 04:45:30;;;;;;;16.20;3.30;;;;;;;3.13;81.02;102329.09;5002068;28;20288;-75
2022/02/26 04:47:57;;;;;;;18.27;3.00;;;;;;;3.11;80.54;102333.50;5003599;28;20210;-75
2022/02/26 04:50:24;;;;;;;16.10;3.13;;;;;;;3.09;81.40;102332.63;5005149;28;20211;-75
2022/02/26 04:52:50;;;;;;;12.30;2.77;;;;;;;3.08;80.65;102336.16;5005460;28;20231;-74
2022/02/26 04:55:17;;;;;;;18.50;2.63;;;;;;;3.07;81.62;102334.38;5001756;28;20615;-75
2022/02/26 04:57:45;;;;;;;11.07;2.40;;;;;;;3.05;81.34;102337.03;5006686;28;20826;-75
2022/02/26 05:00:12;;;;;;;16.40;2.93;;;;;;;3.03;81.22;102333.56;5004532;28;20203;-75
2022/02/26 05:02:40;;;;;;;15.23;2.70;;;;;;;3.02;81.36;102336.19;5005151;28;20229;-75
2022/02/26 05:05:07;;;;;;;23.17;3.20;;;;;;;3.01;81.50;102340.59;5000048;28;20221;-74
2022/02/26 05:07:34;;;;;;;19.37;2.57;;;;;;;3.00;81.43;102348.50;5001016;28;20203;-75
2022/02/26 05:10:01;;;;;;;15.97;2.50;;;;;;;2.98;82.12;102345.00;5007688;28;20214;-75
2022/02/26 05:12:27;;;;;;;19.13;3.07;;;;;;;2.96;81.84;102355.53;5006955;28;20230;-74
2022/02/26 05:14:55;;;;;;;20.13;3.87;;;;;;;2.95;81.83;102353.75;5003305;28;20573;-75
2022/02/26 05:17:22;;;;;;;21.03;4.83;;;;;;;2.93;81.65;102357.28;5002739;28;20207;-75
2022/02/26 05:19:49;;;;;;;18.03;3.80;;;;;;;2.91;82.00;102356.41;4997573;28;20207;-75
2022/02/26 05:22:15;;;;;;;12.20;2.37;;;;;;;2.91;81.70;102356.41;5004261;28;20663;-75
2022/02/26 05:24:42;;;;;;;14.73;3.50;;;;;;;2.91;82.16;102369.56;5007830;28;20561;-75
2022/02/26 05:27:09;;;;;;;15.53;2.87;;;;;;;2.89;81.57;102368.69;5001978;28;20206;-75
2022/02/26 05:29:35;;;;;;;20.03;2.80;;;;;;;2.86;82.36;102374.00;4999677;28;20202;-75
2022/02/26 05:32:04;;;;;;;15.27;2.97;;;;;;;2.84;82.37;102375.75;5002539;28;20241;-75
2022/02/26 05:34:30;;;;;;;14.90;2.77;;;;;;;2.83;82.37;102387.16;5000039;28;20203;-75
2022/02/26 05:36:57;;;;;;;19.30;3.80;;;;;;;2.82;82.49;102374.88;5002838;28;20708;-74
2022/02/26 05:39:23;;;;;;;15.23;3.03;;;;;;;2.81;82.09;102387.16;5007217;28;20207;-75
2022/02/26 05:41:50;;;;;;;15.73;2.87;;;;;;;2.79;82.60;102387.16;5000758;28;20249;-75
2022/02/26 05:44:16;;;;;;;17.70;3.10;;;;;;;2.78;82.59;102388.06;4997120;28;20716;-74
2022/02/26 05:46:43;;;;;;;20.40;2.97;;;;;;;2.78;82.82;102390.69;5004008;28;20204;-75
2022/02/26 05:49:11;;;;;;;12.47;2.90;;;;;;;2.79;82.62;102402.09;5010494;28;20214;-75
2022/02/26 05:51:37;;;;;;;17.57;2.70;;;;;;;2.79;83.06;102408.22;5005774;28;20231;-75
2022/02/26 05:54:04;;;;;;;16.73;3.13;;;;;;;2.79;82.52;102418.75;5007125;28;20207;-75
2022/02/26 05:56:30;;;;;;;11.27;2.37;;;;;;;2.81;83.25;102420.50;4998423;28;20224;-75
2022/02/26 05:58:57;;;;;;;11.83;2.77;;;;;;;2.83;83.23;102434.53;5005858;28;20208;-76
2022/02/26 06:01:23;;;;;;;19.50;3.20;;;;;;;2.83;82.97;102431.91;5003550;28;20223;-76
2022/02/26 06:03:50;;;;;;;20.67;3.50;;;;;;;2.85;83.33;102432.78;5002976;28;20211;-75
2022/02/26 06:06:18;;;;;;;19.87;3.63;;;;;;;2.84;83.10;102436.28;5010417;28;20211;-76
2022/02/26 06:08:45;;;;;;;14.67;2.97;;;;;;;2.83;83.16;102435.41;5002608;28;20207;-76
2022/02/26 06:11:11;;;;;;;14.97;2.67;;;;;;;2.85;82.77;102441.53;5005506;28;20226;-74
2022/02/26 06:13:38;;;;;;;21.93;3.80;;;;;;;2.86;83.48;102445.06;5000051;28;20261;-75
2022/02/26 06:16:05;;;;;;;16.73;3.13;;;;;;;2.85;82.88;102445.94;5003377;28;20230;-75
2022/02/26 06:18:32;;;;;;;21.77;2.77;;;;;;;2.85;83.42;102449.44;5010239;28;20229;-74
2022/02/26 06:20:58;;;;;;;15.03;3.03;;;;;;;2.85;82.84;102440.66;5000838;28;20199;-75
2022/02/26 06:23:26;;;;;;;15.70;3.07;;;;;;;2.86;83.03;102447.69;4999979;28;20657;-75
2022/02/26 06:25:53;;;;;;;14.83;3.23;;;;;;;2.86;83.06;102459.09;5005400;28;20589;-75
2022/02/26 06:28:19;;;;;;;13.97;3.10;;;;;;;2.87;83.56;102458.16;5005285;28;20207;-75
2022/02/26 06:30:46;;;;;;;10.57;3.27;;;;;;;2.89;83.78;102455.53;4995959;28;20207;-75
2022/02/26 06:33:13;;;;;;;16.13;3.27;;;;;;;2.89;82.97;102460.81;5003000;28;20234;-75
2022/02/26 06:35:40;;;;;;;14.30;2.47;;;;;;;2.90;83.03;102467.81;5007071;28;20230;-75
2022/02/26 06:38:07;;;;;;;18.97;3.60;;;;;;;2.90;83.09;102466.06;5001060;28;20211;-75
2022/02/26 06:40:35;;;;;;;16.80;2.63;;;;;;;2.91;83.33;102474.84;5004417;28;20219;-75
2022/02/26 06:43:01;;;;;;;17.07;2.73;;;;;;;2.91;83.49;102480.09;5001522;28;20227;-75
2022/02/26 06:45:28;;;;;;;22.17;3.50;;;;;;;2.89;82.88;102484.50;4997875;28;20217;-75
2022/02/26 06:47:54;;;;;;;16.43;3.93;;;;;;;2.88;83.08;102480.97;5000922;28;20209;-74
2022/02/26 06:50:21;;;;;;;17.00;3.03;;;;;;;2.90;83.75;102494.13;5000757;28;20206;-76
2022/02/26 06:52:47;;;;;;;16.67;3.40;;;;;;;2.89;83.71;102498.53;4997584;28;20233;-75
2022/02/26 06:55:14;;;;;;;18.90;3.53;;;;;;;2.88;83.79;102502.03;5000728;28;20233;-75
2022/02/26 06:57:42;;;;;;;16.50;3.23;;;;;;;2.89;83.93;102508.16;5000304;28;20234;-75
2022/02/26 07:00:10;;;;;;;22.83;3.57;;;;;;;2.91;83.74;102514.31;5004457;28;20210;-75
2022/02/26 07:02:37;;;;;;;18.57;3.37;;;;;;;2.92;83.49;102514.31;4999494;28;20230;-75
2022/02/26 07:05:05;;;;;;;16.47;3.53;;;;;;;2.92;83.81;102516.06;4998045;28;20203;-75
2022/02/26 07:07:33;;;;;;;17.63;3.80;;;;;;;2.92;84.21;102523.97;4997646;28;20693;-75
2022/02/26 07:09:59;;;;;;;20.93;2.80;;;;;;;2.90;83.58;102523.97;4995719;28;20689;-75
2022/02/26 07:12:26;;;;;;;15.83;3.17;;;;;;;2.90;83.49;102529.22;5005395;28;20318;-75
2022/02/26 07:14:54;;;;;;;34.80;3.50;;;;;;;2.92;83.81;102531.84;5005353;28;20207;-75
2022/02/26 07:17:20;;;;;;;12.27;2.50;;;;;;;2.93;84.07;102537.13;5007457;28;20738;-74
2022/02/26 07:19:47;;;;;;;18.20;3.60;;;;;;;2.95;84.10;102540.63;5008025;28;20671;-75
2022/02/26 07:22:13;;;;;;;18.47;3.37;;;;;;;2.97;83.69;102541.50;5006281;28;20727;-75
2022/02/26 07:24:40;;;;;;;15.90;2.83;;;;;;;2.99;84.23;102552.03;5008510;28;20209;-75
2022/02/26 07:27:07;;;;;;;16.07;2.67;;;;;;;3.00;84.63;102548.53;5006836;28;20221;-75
2022/02/26 07:29:33;;;;;;;21.20;3.40;;;;;;;3.02;84.20;102558.19;5008472;28;20584;-75
2022/02/26 07:32:01;;;;;;;17.37;3.07;;;;;;;3.03;83.76;102562.56;5005073;28;20233;-76
2022/02/26 07:34:28;;;;;;;21.50;3.93;;;;;;;3.04;84.54;102563.44;5005430;28;20669;-75
2022/02/26 07:36:54;;;;;;;18.17;3.07;;;;;;;3.05;83.75;102579.19;5008102;28;20219;-75
2022/02/26 07:39:21;;;;;;;16.17;3.03;;;;;;;3.06;83.96;102580.06;5003512;28;20207;-75
2022/02/26 07:41:47;;;;;;;13.33;2.80;;;;;;;3.06;84.46;102570.44;5004561;28;20227;-75
2022/02/26 07:44:14;;;;;;;20.80;3.90;;;;;;;3.09;84.12;102585.34;5001923;28;20210;-75
2022/02/26 07:46:40;;;;;;;15.00;2.83;;;;;;;3.10;84.27;102589.72;5000548;28;20681;-75
2022/02/26 07:49:08;;;;;;;18.10;3.07;;;;;;;3.12;84.90;102593.25;5004119;28;20207;-75
2022/02/26 07:51:35;;;;;;;19.10;3.90;;;;;;;3.14;84.55;102599.38;4998966;28;20223;-75
2022/02/26 07:54:01;;;;;;;19.17;3.63;;;;;;;3.16;84.34;102600.25;5004498;28;20226;-75
2022/02/26 07:56:28;;;;;;;14.93;3.87;;;;;;;3.19;84.66;102596.75;5002716;28;20226;-75
2022/02/26 07:58:55;;;;;;;17.03;3.30;;;;;;;3.21;84.74;102606.41;5001851;28;20214;-75
2022/02/26 08:01:21;;;;;;;18.17;3.03;;;;;;;3.23;84.68;102601.97;5002224;28;20227;-75
2022/02/26 08:03:48;;;;;;;13.83;3.20;;;;;;;3.26;85.26;102609.00;4999129;28;20708;-75
2022/02/26 08:06:16;;;;;;;20.03;3.70;;;;;;;3.29;84.55;102612.53;5002816;28;20249;-75
2022/02/26 08:08:42;;;;;;;12.47;2.90;;;;;;;3.34;85.01;102607.25;5001138;28;20289;-75
2022/02/26 08:11:09;;;;;;;17.03;3.17;;;;;;;3.38;84.97;102616.91;5000774;28;20672;-75
2022/02/26 08:13:35;;;;;;;17.87;3.57;;;;;;;3.43;85.01;102621.25;4999152;28;20203;-75
2022/02/26 08:16:02;;;;;;;14.47;3.00;;;;;;;3.44;84.86;102620.38;5001912;28;20207;-75
2022/02/26 08:18:28;;;;;;;21.00;3.70;;;;;;;3.48;84.88;102627.41;5000399;28;20207;-75
2022/02/26 08:20:57;;;;;;;15.27;3.47;;;;;;;3.54;85.58;102630.91;4998499;28;20207;-76
2022/02/26 08:23:24;;;;;;;17.00;3.50;;;;;;;3.57;85.31;102633.53;4998069;28;20211;-75
2022/02/26 08:25:51;;;;;;;14.93;3.17;;;;;;;3.61;85.17;102624.72;5000424;28;20226;-75
2022/02/26 08:28:17;;;;;;;23.03;3.90;;;;;;;3.66;85.05;102628.22;5001728;28;20588;-75
2022/02/26 08:30:44;;;;;;;20.60;4.20;;;;;;;3.70;84.95;102627.34;4996671;28;20203;-75
2022/02/26 08:33:11;;;;;;;21.57;3.80;;;;;;;3.76;85.58;102633.44;4996465;28;20263;-75
2022/02/26 08:35:37;;;;;;;16.40;3.70;;;;;;;3.79;84.95;102632.56;4994832;28;20207;-75
2022/02/26 08:38:05;;;;;;;13.17;3.57;;;;;;;3.81;85.34;102633.44;4997989;28;20227;-75
2022/02/26 08:40:33;;;;;;;17.20;3.80;;;;;;;3.86;85.27;102641.34;4993819;28;20211;-75
2022/02/26 08:42:59;;;;;;;18.20;3.80;;;;;;;3.91;85.05;102642.19;4994551;28;20742;-75
2022/02/26 08:45:26;;;;;;;12.63;3.63;;;;;;;3.95;85.73;102650.06;4994937;28;20210;-75
2022/02/26 08:47:53;;;;;;;17.63;4.03;;;;;;;3.98;85.29;102657.97;4996189;28;20657;-75
2022/02/26 08:50:21;;;;;;;17.57;4.40;;;;;;;4.02;85.51;102661.47;4998060;28;20215;-75
2022/02/26 08:52:48;;;;;;;17.83;4.50;;;;;;;4.05;85.02;102666.75;5000931;28;20329;-74
2022/02/26 08:55:14;;;;;;;23.20;4.40;;;;;;;4.08;85.59;102672.88;5002909;28;20895;-73
2022/02/26 08:57:43;;;;;;;20.93;5.33;;;;;;;4.12;85.15;102671.97;5002785;28;20233;-74
2022/02/26 09:00:12;;;;;;;18.93;4.97;;;;;;;4.16;85.15;102676.34;4998981;28;20211;-76
2022/02/26 09:02:39;;;;;;;20.60;5.27;;;;;;;4.20;85.25;102679.84;5002505;28;20600;-75
2022/02/26 09:05:07;;;;;;;25.03;5.63;;;;;;;4.25;85.36;102685.13;4985351;28;20721;-75
2022/02/26 09:07:33;;;;;;;24.03;5.80;;;;;;;4.24;84.79;102684.25;4996184;28;20204;-74
2022/02/26 09:10:00;;;;;;;17.33;5.60;;;;;;;4.25;84.63;102682.47;4998980;28;20205;-75
2022/02/26 09:12:27;;;;;;;26.03;5.43;;;;;;;4.27;84.59;102683.34;5001665;28;20229;-75
2022/02/26 09:14:55;;;;;;;23.17;5.47;;;;;;;4.31;85.27;102682.44;4999293;28;20207;-75
2022/02/26 09:17:21;;;;;;;25.17;5.40;;;;;;;4.33;84.69;102684.19;5001063;28;20913;-75
2022/02/26 09:19:48;;;;;;;21.00;5.97;;;;;;;4.36;84.52;102693.84;5006540;28;20214;-75
2022/02/26 09:22:14;;;;;;;20.87;5.70;;;;;;;4.40;84.93;102690.31;4997708;28;20569;-75
2022/02/26 09:24:41;;;;;;;22.47;6.07;;;;;;;4.42;84.92;102699.09;5002571;28;20210;-75
2022/02/26 09:27:08;;;;;;;19.83;5.73;;;;;;;4.47;84.51;102697.31;5001478;28;20207;-74
2022/02/26 09:29:34;;;;;;;19.43;5.47;;;;;;;4.49;84.10;102701.69;4999824;28;20212;-75
2022/02/26 09:32:02;;;;;;;23.57;6.43;;;;;;;4.53;84.62;102702.53;5023751;22;20227;-73
2022/02/26 09:34:29;;;;;;;19.00;6.90;;;;;;;4.58;84.28;102698.13;5016047;28;20214;-73
2022/02/26 09:36:56;;;;;;;22.03;6.03;;;;;;;4.61;83.97;102700.75;5012663;28;20237;-73
2022/02/26 09:39:24;;;;;;;20.00;6.57;;;;;;;4.64;84.19;102695.47;5013560;28;20574;-73
2022/02/26 09:41:51;;;;;;;26.97;6.97;;;;;;;4.67;84.23;102705.97;5016928;28;20727;-75
2022/02/26 09:44:20;;;;;;;19.07;7.10;;;;;;;4.70;83.94;102711.22;5010554;28;20242;-73
2022/02/26 09:46:48;;;;;;;16.73;6.17;;;;;;;4.74;83.42;102712.97;5010374;28;20206;-74
2022/02/26 09:49:16;;;;;;;22.00;7.27;;;;;;;4.74;83.51;102715.63;5014376;28;20201;-73
2022/02/26 09:51:44;;;;;;;26.57;7.37;;;;;;;4.83;83.42;102718.22;5017024;28;20257;-74
2022/02/26 09:54:11;;;;;;;17.40;7.00;;;;;;;4.94;83.17;102720.75;5013882;28;20203;-74
2022/02/26 09:56:39;;;;;;;23.43;5.90;;;;;;;5.05;83.31;102712.75;5016657;28;20294;-72
2022/02/26 09:59:06;;;;;;;20.27;5.97;;;;;;;5.16;82.93;102718.84;5012769;28;20202;-73
2022/02/26 10:01:33;;;;;;;19.10;6.23;;;;;;;5.24;82.57;102715.22;5014543;28;20233;-72
2022/02/26 10:04:07;;;;;;;17.50;5.77;;;;;;;5.33;82.39;102714.28;5016738;28;20818;-73
2022/02/26 10:06:36;;;;;;;15.53;5.43;;;;;;;5.42;81.93;102726.53;5007999;28;20206;-73
2022/02/26 10:09:10;;;;;;;20.10;6.60;;;;;;;5.51;81.43;102726.47;5012491;28;20718;-73
2022/02/26 10:11:38;;;;;;;21.53;5.63;;;;;;;5.54;81.01;102729.09;5017689;28;20227;-73
2022/02/26 10:14:06;;;;;;;19.33;6.27;;;;;;;5.55;80.32;102731.69;5018846;28;20202;-73
2022/02/26 10:16:51;;;;;;;19.23;7.03;;;;;;;5.62;80.08;102731.63;5010763;28;20257;-73
2022/02/26 10:19:23;;;;;;;19.10;6.70;;;;;;;5.71;80.72;102731.56;5004145;28;20716;-73
2022/02/26 10:21:51;;;;;;;28.63;8.70;;;;;;;5.83;80.12;102726.13;5008664;28;20611;-73
2022/02/26 10:24:18;;;;;;;28.63;9.40;;;;;;;5.96;79.96;102727.78;5009038;28;20214;-72
2022/02/26 10:26:50;;;;;;;20.47;7.20;;;;;;;6.07;79.48;102740.91;5006832;28;20685;-72
2022/02/26 10:29:19;;;;;;;17.13;6.37;;;;;;;6.18;79.52;102737.22;5016304;28;20289;-71
2022/02/26 10:31:48;;;;;;;25.50;6.60;;;;;;;6.27;78.70;102736.22;5012547;28;20230;-71
2022/02/26 10:34:26;;;;;;;15.67;5.97;;;;;;;6.35;78.43;102741.44;5010993;28;20207;-71
2022/02/26 10:37:02;;;;;;;15.73;5.30;;;;;;;6.40;77.10;102736.97;5002396;28;20241;-71
2022/02/26 10:39:30;;;;;;;19.50;5.93;;;;;;;6.40;76.68;102735.19;5005476;28;20203;-71
2022/02/26 10:41:57;;;;;;;13.87;5.13;;;;;;;6.41;76.43;102741.38;5001364;28;20223;-73
2022/02/26 10:44:24;;;;;;;18.47;6.47;;;;;;;6.40;76.14;102748.44;5016284;28;20234;-72
2022/02/26 10:46:52;;;;;;;19.57;5.53;;;;;;;6.43;75.49;102742.22;5007869;28;20198;-75
2022/02/26 10:49:20;;;;;;;24.57;5.87;;;;;;;6.47;74.97;102742.16;5002775;28;20303;-72
2022/02/26 10:51:49;;;;;;;19.00;5.33;;;;;;;6.55;75.20;102737.63;5002640;28;20609;-72
2022/02/26 10:54:22;;;;;;;18.63;5.00;;;;;;;6.60;74.24;102749.06;5000518;28;21408;-72
2022/02/26 10:56:48;;;;;;;11.70;4.00;;;;;;;6.65;73.70;102735.72;5002018;28;20203;-71
2022/02/26 10:59:28;;;;;;;22.23;5.90;;;;;;;6.71;74.44;102730.34;5006809;28;20770;-71
2022/02/26 11:02:00;;;;;;;13.50;6.67;;;;;;;6.75;73.36;102732.06;5005714;28;20219;-72
2022/02/26 11:04:27;;;;;;;19.60;6.77;;;;;;;6.81;73.18;102736.38;5008233;28;20656;-72
2022/02/26 11:06:54;;;;;;;27.77;7.10;;;;;;;6.89;73.03;102723.91;5008785;28;20649;-72
2022/02/26 11:09:23;;;;;;;16.23;4.57;;;;;;;6.94;72.28;102730.91;5005527;28;20207;-73
2022/02/26 11:11:51;;;;;;;13.40;4.37;;;;;;;6.99;72.26;102737.91;5002446;28;20226;-73
2022/02/26 11:14:20;;;;;;;13.77;4.27;;;;;;;7.02;71.90;102732.53;5007711;28;20206;-73
2022/02/26 11:16:49;;;;;;;18.40;5.07;;;;;;;7.05;72.15;102732.50;5011029;28;20214;-72
2022/02/26 11:19:19;;;;;;;18.70;5.20;;;;;;;7.09;71.73;102727.13;5010357;28;20206;-70
2022/02/26 11:21:47;;;;;;;18.57;5.13;;;;;;;7.11;71.20;102725.34;5011785;28;20227;-73
2022/02/26 11:24:16;;;;;;;25.53;6.77;;;;;;;7.18;71.13;102745.53;5000023;28;20211;-72